Philip, SD

11:58 PM MDT on September 16, 2014 (GMT -0600)
Philip | Change Station
CLOSE
Current Station
Airport
Location: Philip,
Elevation: 2208 ft
Nearby Weather Stations

Elev 2208 ft 44.05 °N, 101.60 °W | Updated 1 hour ago

Clear
Clear
52 °F
Feels Like 52 °F
N
5
Wind Variable Wind from WNW

Today
High -- | Low -- °F
--% Chance of Precip.
Yesterday
High -- | Low -- °F
Precip. -- in
6:27 AM 6:55 PM
Last Quarter, 39% visible
Pressure 29.90 in
Visibility 10.0 miles
Clouds Clear
Dew Point 49 °F
Humidity 89%
Rainfall 0.00 in
Snow Depth 0 in
UV 0 out of 12
Pollen 5.80 out of 12
Air Quality Not available.
Flu Activity Not available.
METAR KPHP 170455Z AUTO 30004KT 10SM CLR 11/09 A2992 RMK AO2 SLP123 T01110094

More Conditions Fewer Conditions

Pressure 29.90 in
Visibility 10.0 miles
Clouds Clear
Dew Point 49 °F
Humidity 89%
Rainfall 0.00 in
Snow Depth 0 in
UV 0 out of 12
Pollen 5.80 out of 12
Air Quality Not available.
Flu Activity Not available.
METAR KPHP 170455Z AUTO 30004KT 10SM CLR 11/09 A2992 RMK AO2 SLP123 T01110094

More Conditions Fewer Conditions

10-Day Weather Forecast

Almanac

Astronomy

Sep. 16, 2014 Rise Set
Actual Time 6:27 AM MDT 6:55 PM MDT
Civil Twilight 5:58 AM MDT 7:24 PM MDT
Nautical Twilight 5:23 AM MDT 7:58 PM MDT
Astronomical Twilight 4:48 AM MDT 8:33 PM MDT
Moon No Moon Rise 2:29 PM MDT (9/16)
Length of Visible Light 13h 26m
Length of Day
12h 28m
Tomorrow will be 3m 0s shorter.
Last Quarter, 39% of the Moon is Illuminated
Sep 17
Last Quarter
Sep 24
New
Oct 1
First Quarter
Oct 8
Full
Oct 15
Last Quarter

Yesterday's Extremes

State Highs State Lows

Community

WunderPhotos

Upload Photos

1,753,968 photos uploaded!

Nearby

Snow Depth

Station Depth Elevation
Blind Park 0 in 6890 ft

Earthquake Activity

City Distance Mag. Time & Date
No recent earthquake activity has been reported nearby.
Minimum magnitude displayed is 2.5.

Coastal Water Temperatures

Place Temperature
No Stations Reporting

Nearby Weather Stations